createdAt,value
2023-02-24T00:00:47.341Z,-2.85
2023-02-24T00:03:16.358Z,-2.95
2023-02-24T00:05:50.293Z,-3.06
2023-02-24T00:08:19.138Z,-3.06
2023-02-24T00:10:49.967Z,-3.11
2023-02-24T00:13:22.661Z,-3.24
2023-02-24T00:16:03.252Z,-3.42
2023-02-24T00:18:35.622Z,-3.57
2023-02-24T00:21:11.214Z,-3.66
2023-02-24T00:23:40.632Z,-3.69
2023-02-24T00:26:10.341Z,-3.73
2023-02-24T00:28:40.576Z,-3.78
2023-02-24T00:31:12.095Z,-3.83
2023-02-24T00:33:43.265Z,-3.88
2023-02-24T00:36:24.059Z,-3.93
2023-02-24T00:38:56.410Z,-3.99
2023-02-24T00:41:29.710Z,-4.00
2023-02-24T00:44:07.763Z,-4.03
2023-02-24T00:46:40.428Z,-3.97
2023-02-24T00:49:17.440Z,-3.88
2023-02-24T00:51:49.328Z,-3.80
2023-02-24T00:54:19.154Z,-3.70
2023-02-24T00:56:48.664Z,-3.68
2023-02-24T00:59:25.013Z,-3.73
2023-02-24T01:01:55.096Z,-3.79
2023-02-24T01:04:24.031Z,-3.82
2023-02-24T01:07:00.568Z,-3.82
2023-02-24T01:09:31.400Z,-3.84
2023-02-24T01:12:21.722Z,-3.87
2023-02-24T01:14:52.471Z,-3.87
2023-02-24T01:17:21.955Z,-3.86
2023-02-24T01:19:52.215Z,-3.85
2023-02-24T01:22:21.309Z,-3.85
2023-02-24T01:24:50.879Z,-3.86
2023-02-24T01:27:20.466Z,-3.88
2023-02-24T01:29:50.604Z,-3.84
2023-02-24T01:32:21.012Z,-3.78
2023-02-24T01:34:53.724Z,-3.77
2023-02-24T01:37:22.569Z,-3.79
2023-02-24T01:39:52.104Z,-3.75
2023-02-24T01:42:21.522Z,-3.72
2023-02-24T01:44:52.212Z,-3.66
2023-02-24T01:47:21.344Z,-3.52
2023-02-24T01:49:53.021Z,-3.47
2023-02-24T01:52:26.531Z,-3.52
2023-02-24T01:55:08.704Z,-3.57
2023-02-24T01:57:38.923Z,-3.62
2023-02-24T02:00:20.711Z,-3.65
2023-02-24T02:02:53.344Z,-3.66
2023-02-24T02:05:22.379Z,-3.66
2023-02-24T02:07:55.472Z,-3.69
2023-02-24T02:10:25.177Z,-3.60
2023-02-24T02:12:54.579Z,-3.49
2023-02-24T02:15:24.661Z,-3.42
2023-02-24T02:18:02.932Z,-3.42
2023-02-24T02:20:56.065Z,-3.44
2023-02-24T02:23:42.403Z,-3.50
2023-02-24T02:26:36.065Z,-3.50
2023-02-24T02:29:46.614Z,-3.57
2023-02-24T02:32:48.054Z,-3.63
2023-02-24T02:35:31.999Z,-3.67
2023-02-24T02:38:26.508Z,-3.66
2023-02-24T02:41:04.294Z,-3.64
2023-02-24T02:44:07.802Z,-3.72
2023-02-24T02:46:41.497Z,-3.83
2023-02-24T02:49:32.706Z,-3.79
2023-02-24T02:52:14.111Z,-3.75
2023-02-24T02:54:49.914Z,-3.76
2023-02-24T02:57:27.534Z,-3.74
2023-02-24T02:59:59.428Z,-3.78
2023-02-24T03:02:30.583Z,-3.82
2023-02-24T03:05:00.733Z,-3.88
2023-02-24T03:07:35.178Z,-3.93
2023-02-24T03:10:10.942Z,-3.98
2023-02-24T03:12:39.858Z,-4.13
2023-02-24T03:15:10.971Z,-4.26
2023-02-24T03:17:41.241Z,-4.35
2023-02-24T03:20:17.954Z,-4.42
2023-02-24T03:22:51.943Z,-4.50
2023-02-24T03:25:25.388Z,-4.55
2023-02-24T03:27:57.433Z,-4.58
2023-02-24T03:30:41.689Z,-4.61
2023-02-24T03:33:18.357Z,-4.64
2023-02-24T03:35:47.060Z,-4.64
2023-02-24T03:38:16.253Z,-4.68
2023-02-24T03:40:45.229Z,-4.68
2023-02-24T03:43:29.215Z,-4.67
2023-02-24T03:45:58.286Z,-4.69
2023-02-24T03:48:29.033Z,-4.68
2023-02-24T03:50:59.729Z,-4.62
2023-02-24T03:53:58.945Z,-4.57
2023-02-24T03:56:47.487Z,-4.55
2023-02-24T03:59:40.229Z,-4.58
2023-02-24T04:02:18.281Z,-4.59
2023-02-24T04:04:58.726Z,-4.54
2023-02-24T04:08:04.342Z,-4.47
2023-02-24T04:11:13.485Z,-4.42
2023-02-24T04:13:56.140Z,-4.33
2023-02-24T04:16:41.472Z,-4.34
2023-02-24T04:19:15.391Z,-4.33
2023-02-24T04:21:45.190Z,-4.32
2023-02-24T04:24:19.727Z,-4.35
2023-02-24T04:26:50.137Z,-4.38
2023-02-24T04:29:23.348Z,-4.42
2023-02-24T04:32:01.420Z,-4.46
2023-02-24T04:34:32.777Z,-4.53
2023-02-24T04:37:02.701Z,-4.57
2023-02-24T04:39:32.308Z,-4.58
2023-02-24T04:42:02.012Z,-4.59
2023-02-24T04:44:33.028Z,-4.61
2023-02-24T04:47:04.129Z,-4.62
2023-02-24T04:49:34.315Z,-4.61
2023-02-24T04:52:02.989Z,-4.60
2023-02-24T04:54:31.895Z,-4.59
2023-02-24T04:57:00.685Z,-4.56
2023-02-24T04:59:29.830Z,-4.52
2023-02-24T05:02:01.954Z,-4.50
2023-02-24T05:04:32.039Z,-4.42
2023-02-24T05:07:01.056Z,-4.34
2023-02-24T05:09:30.394Z,-4.31
2023-02-24T05:12:00.686Z,-4.34
2023-02-24T05:14:31.319Z,-4.40
2023-02-24T05:17:00.677Z,-4.41
2023-02-24T05:19:48.401Z,-4.39
2023-02-24T05:22:17.862Z,-4.36
2023-02-24T05:24:48.236Z,-4.34
2023-02-24T05:27:17.727Z,-4.29
2023-02-24T05:29:49.434Z,-4.24
2023-02-24T05:32:19.282Z,-4.20
2023-02-24T05:34:48.244Z,-4.22
2023-02-24T05:37:16.979Z,-4.24
2023-02-24T05:39:45.924Z,-4.24
2023-02-24T05:42:15.834Z,-4.24
2023-02-24T05:44:44.630Z,-4.22
2023-02-24T05:47:20.061Z,-4.20
2023-02-24T05:49:53.049Z,-4.22
2023-02-24T05:52:21.920Z,-4.22
2023-02-24T05:54:54.007Z,-4.21
2023-02-24T05:57:27.804Z,-4.20
2023-02-24T05:59:57.022Z,-4.18
2023-02-24T06:02:29.321Z,-4.13
2023-02-24T06:04:59.201Z,-4.06
2023-02-24T06:07:28.793Z,-4.00
2023-02-24T06:10:00.047Z,-3.95
2023-02-24T06:12:30.261Z,-3.89
2023-02-24T06:15:08.214Z,-3.78
2023-02-24T06:17:39.919Z,-3.72
2023-02-24T06:20:15.988Z,-3.69
2023-02-24T06:22:46.210Z,-3.71
2023-02-24T06:25:18.693Z,-3.71
2023-02-24T06:27:53.448Z,-3.65
2023-02-24T06:30:23.254Z,-3.61
2023-02-24T06:32:52.364Z,-3.58
2023-02-24T06:35:21.717Z,-3.53
2023-02-24T06:37:51.325Z,-3.45
2023-02-24T06:40:20.321Z,-3.36
2023-02-24T06:42:50.200Z,-3.26
2023-02-24T06:45:19.251Z,-3.15
2023-02-24T06:47:49.080Z,-3.07
2023-02-24T06:50:20.424Z,-3.00
2023-02-24T06:52:50.017Z,-2.89
2023-02-24T06:55:28.500Z,-2.77
2023-02-24T06:57:59.033Z,-2.65
2023-02-24T07:00:37.606Z,-2.62
2023-02-24T07:03:16.905Z,-2.65
2023-02-24T07:06:11.482Z,-2.61
2023-02-24T07:08:41.772Z,-2.58
2023-02-24T07:11:11.862Z,-2.54
2023-02-24T07:13:41.448Z,-2.45
2023-02-24T07:16:12.408Z,-2.40
2023-02-24T07:18:43.222Z,-2.43
2023-02-24T07:21:11.881Z,-2.45
2023-02-24T07:23:41.957Z,-2.47
2023-02-24T07:26:15.125Z,-2.44
2023-02-24T07:28:44.285Z,-2.32
2023-02-24T07:31:14.201Z,-2.27
2023-02-24T07:33:46.837Z,-2.23
2023-02-24T07:36:23.501Z,-2.21
2023-02-24T07:38:53.703Z,-2.22
2023-02-24T07:41:23.385Z,-2.20
2023-02-24T07:43:55.135Z,-2.15
2023-02-24T07:46:25.809Z,-2.09
2023-02-24T07:48:55.800Z,-2.00
2023-02-24T07:51:25.796Z,-1.91
2023-02-24T07:53:59.805Z,-1.85
2023-02-24T07:56:29.419Z,-1.78
2023-02-24T07:59:02.232Z,-1.73
2023-02-24T08:01:39.293Z,-1.72
2023-02-24T08:04:08.784Z,-1.67
2023-02-24T08:06:40.069Z,-1.55
2023-02-24T08:09:20.773Z,-1.47
2023-02-24T08:11:54.002Z,-1.47
2023-02-24T08:14:24.124Z,-1.53
2023-02-24T08:16:59.710Z,-1.49
2023-02-24T08:19:33.803Z,-1.36
2023-02-24T08:22:32.044Z,-1.25
2023-02-24T08:25:08.076Z,-1.19
2023-02-24T08:27:40.687Z,-1.07
2023-02-24T08:30:25.403Z,-0.92
2023-02-24T08:32:57.563Z,-0.85
2023-02-24T08:35:36.071Z,-0.83
2023-02-24T08:38:14.754Z,-0.79
2023-02-24T08:40:51.126Z,-0.75
2023-02-24T08:43:33.322Z,-0.64
2023-02-24T08:46:26.953Z,-0.54
2023-02-24T08:49:01.338Z,-0.46
2023-02-24T08:51:35.532Z,-0.44
2023-02-24T08:54:11.548Z,-0.31
2023-02-24T08:56:44.080Z,-0.19
2023-02-24T08:59:29.527Z,-0.08
2023-02-24T09:02:17.896Z,0.02
2023-02-24T09:04:48.212Z,0.03
2023-02-24T09:07:36.754Z,0.00
2023-02-24T09:10:11.914Z,0.04
2023-02-24T09:12:42.113Z,0.18
2023-02-24T09:15:11.978Z,0.40
2023-02-24T09:17:43.273Z,0.63
2023-02-24T09:20:26.196Z,0.76
2023-02-24T09:23:02.658Z,0.84
2023-02-24T09:25:41.711Z,0.90
2023-02-24T09:28:18.541Z,0.95
2023-02-24T09:30:53.668Z,1.08
2023-02-24T09:33:41.676Z,1.31
2023-02-24T09:36:30.340Z,1.54
2023-02-24T09:39:00.146Z,1.79
2023-02-24T09:41:55.450Z,2.14
2023-02-24T09:44:27.883Z,2.47
2023-02-24T09:47:09.377Z,2.66
2023-02-24T09:49:46.857Z,2.85
2023-02-24T09:52:17.816Z,3.07
2023-02-24T09:55:08.008Z,3.19
2023-02-24T09:58:02.889Z,3.17
2023-02-24T10:00:33.929Z,3.10
2023-02-24T10:03:20.045Z,3.11
2023-02-24T10:06:12.517Z,3.08
2023-02-24T10:08:49.891Z,3.03
2023-02-24T10:11:32.950Z,3.07
2023-02-24T10:14:05.715Z,3.27
2023-02-24T10:16:46.402Z,3.54
2023-02-24T10:19:26.896Z,3.71
2023-02-24T10:22:09.505Z,3.80
2023-02-24T10:24:49.891Z,3.82
2023-02-24T10:27:27.966Z,3.80
2023-02-24T10:30:41.272Z,3.86
2023-02-24T10:33:25.868Z,3.72
2023-02-24T10:36:12.440Z,3.60
2023-02-24T10:38:45.830Z,3.59
2023-02-24T10:41:14.850Z,3.53
2023-02-24T10:43:54.993Z,3.54
2023-02-24T10:46:42.658Z,3.63
2023-02-24T10:49:17.023Z,3.79
2023-02-24T10:51:52.601Z,4.03
2023-02-24T10:54:33.880Z,4.14
2023-02-24T10:57:18.714Z,4.29
2023-02-24T11:00:06.076Z,4.38
2023-02-24T11:02:57.816Z,4.27
2023-02-24T11:05:39.184Z,4.20
2023-02-24T11:08:40.084Z,4.11
2023-02-24T11:11:31.533Z,4.45
2023-02-24T11:14:21.011Z,5.01
2023-02-24T11:17:15.114Z,5.34
2023-02-24T11:20:01.280Z,5.44
2023-02-24T11:22:35.710Z,5.28
2023-02-24T11:25:23.130Z,5.16
2023-02-24T11:27:53.403Z,5.22
2023-02-24T11:30:26.994Z,5.35
2023-02-24T11:33:14.547Z,5.47
2023-02-24T11:36:05.498Z,5.46
2023-02-24T11:38:41.358Z,5.50
2023-02-24T11:41:16.373Z,5.44
2023-02-24T11:43:59.904Z,5.24
2023-02-24T11:46:42.030Z,4.96
2023-02-24T11:49:38.298Z,4.65
2023-02-24T11:52:10.714Z,4.28
2023-02-24T11:54:44.210Z,3.99
2023-02-24T11:57:23.030Z,3.74
2023-02-24T11:59:58.887Z,3.54
2023-02-24T12:02:34.256Z,3.39
2023-02-24T12:05:10.900Z,3.24
2023-02-24T12:07:51.887Z,3.22
2023-02-24T12:10:34.798Z,3.26
2023-02-24T12:13:29.183Z,3.19
2023-02-24T12:16:15.236Z,3.14
2023-02-24T12:18:52.874Z,3.02
2023-02-24T12:21:45.523Z,2.94
2023-02-24T12:24:14.525Z,2.91
2023-02-24T12:26:48.219Z,2.88
2023-02-24T12:29:29.010Z,2.88
2023-02-24T12:32:16.117Z,2.92
2023-02-24T12:34:50.852Z,2.88
2023-02-24T12:37:49.207Z,2.81
2023-02-24T12:40:24.441Z,2.78
2023-02-24T12:43:15.244Z,2.75
2023-02-24T12:45:57.155Z,2.79
2023-02-24T12:48:26.541Z,2.89
2023-02-24T12:51:24.915Z,2.93
2023-02-24T12:54:04.155Z,2.94
2023-02-24T12:56:40.116Z,2.87
2023-02-24T12:59:10.440Z,2.80
2023-02-24T13:02:00.667Z,2.78
2023-02-24T13:04:35.861Z,2.78
2023-02-24T13:08:09.189Z,2.75
2023-02-24T13:10:45.328Z,2.69
2023-02-24T13:13:46.652Z,2.60
2023-02-24T13:16:15.817Z,2.56
2023-02-24T13:18:46.295Z,2.57
2023-02-24T13:21:15.213Z,2.62
2023-02-24T13:23:52.983Z,2.68
2023-02-24T13:26:25.253Z,2.70
2023-02-24T13:29:09.813Z,2.71
2023-02-24T13:31:58.854Z,2.72
2023-02-24T13:34:35.458Z,2.72
2023-02-24T13:37:04.569Z,2.72
2023-02-24T13:39:36.402Z,2.73
2023-02-24T13:42:25.878Z,2.74
2023-02-24T13:45:10.540Z,2.78
2023-02-24T13:48:05.644Z,2.80
2023-02-24T13:51:08.743Z,2.81
2023-02-24T13:53:59.141Z,2.82
2023-02-24T13:56:49.532Z,2.76
2023-02-24T13:59:24.866Z,2.71
2023-02-24T14:02:20.732Z,2.72
2023-02-24T14:04:51.776Z,2.74
2023-02-24T14:07:31.274Z,2.75
2023-02-24T14:10:19.405Z,2.75
2023-02-24T14:12:48.504Z,2.75
2023-02-24T14:15:24.887Z,2.76
2023-02-24T14:17:59.943Z,2.78
2023-02-24T14:20:32.602Z,2.79
2023-02-24T14:23:02.702Z,2.78
2023-02-24T14:25:37.065Z,2.78
2023-02-24T14:28:07.139Z,2.79
2023-02-24T14:30:40.711Z,2.83
2023-02-24T14:33:22.840Z,2.85
2023-02-24T14:35:54.206Z,2.84
2023-02-24T14:38:37.069Z,2.81
2023-02-24T14:41:07.880Z,2.78
2023-02-24T14:43:45.945Z,2.78
2023-02-24T14:46:16.712Z,2.76
2023-02-24T14:48:45.775Z,2.73
2023-02-24T14:51:20.337Z,2.72
2023-02-24T14:53:51.804Z,2.69
2023-02-24T14:56:20.752Z,2.66
2023-02-24T14:59:17.515Z,2.67
2023-02-24T15:01:48.487Z,2.68
2023-02-24T15:04:37.393Z,2.74
2023-02-24T15:07:07.979Z,2.73
2023-02-24T15:09:40.897Z,2.68
2023-02-24T15:12:32.431Z,2.64
2023-02-24T15:15:14.312Z,2.61
2023-02-24T15:17:43.081Z,2.57
2023-02-24T15:20:27.332Z,2.55
2023-02-24T15:22:57.570Z,2.51
2023-02-24T15:25:37.040Z,2.49
2023-02-24T15:28:33.440Z,2.45
2023-02-24T15:31:18.598Z,2.40
2023-02-24T15:33:58.199Z,2.38
2023-02-24T15:36:30.254Z,2.37
2023-02-24T15:39:10.943Z,2.36
2023-02-24T15:41:45.368Z,2.36
2023-02-24T15:44:25.048Z,2.32
2023-02-24T15:46:55.408Z,2.27
2023-02-24T15:49:24.365Z,2.24
2023-02-24T15:51:53.830Z,2.21
2023-02-24T15:54:34.862Z,2.21
2023-02-24T15:57:05.605Z,2.21
2023-02-24T15:59:34.477Z,2.21
2023-02-24T16:02:13.707Z,2.21
2023-02-24T16:04:43.460Z,2.19
2023-02-24T16:07:32.570Z,2.15
2023-02-24T16:10:01.618Z,2.10
2023-02-24T16:12:43.283Z,2.08
2023-02-24T16:15:16.923Z,2.08
2023-02-24T16:17:45.865Z,2.15
2023-02-24T16:20:27.949Z,2.16
2023-02-24T16:23:02.093Z,2.10
2023-02-24T16:25:42.379Z,2.02
2023-02-24T16:28:19.499Z,1.97
2023-02-24T16:30:50.210Z,1.97
2023-02-24T16:33:21.176Z,1.96
2023-02-24T16:35:53.656Z,1.99
2023-02-24T16:38:27.065Z,2.04
2023-02-24T16:40:56.151Z,2.06
2023-02-24T16:43:30.258Z,2.04
2023-02-24T16:46:04.207Z,2.01
2023-02-24T16:48:37.871Z,2.01
2023-02-24T16:51:07.878Z,1.93
2023-02-24T16:53:37.178Z,1.84
2023-02-24T16:56:07.931Z,1.72
2023-02-24T16:58:38.464Z,1.65
2023-02-24T17:01:07.823Z,1.68
2023-02-24T17:03:42.883Z,1.69
2023-02-24T17:06:11.878Z,1.69
2023-02-24T17:08:43.945Z,1.68
2023-02-24T17:11:14.135Z,1.67
2023-02-24T17:13:44.176Z,1.57
2023-02-24T17:16:13.640Z,1.48
2023-02-24T17:18:42.784Z,1.44
2023-02-24T17:21:15.885Z,1.42
2023-02-24T17:23:44.863Z,1.41
2023-02-24T17:26:15.006Z,1.40
2023-02-24T17:28:44.001Z,1.38
2023-02-24T17:31:13.144Z,1.38
2023-02-24T17:33:42.573Z,1.41
2023-02-24T17:36:11.253Z,1.45
2023-02-24T17:38:39.838Z,1.46
2023-02-24T17:41:11.091Z,1.45
2023-02-24T17:43:40.277Z,1.44
2023-02-24T17:46:11.774Z,1.39
2023-02-24T17:48:41.132Z,1.33
2023-02-24T17:51:14.685Z,1.32
2023-02-24T17:53:43.935Z,1.30
2023-02-24T17:56:13.078Z,1.29
2023-02-24T17:58:43.244Z,1.25
2023-02-24T18:01:12.244Z,1.21
2023-02-24T18:03:42.222Z,1.18
2023-02-24T18:06:12.080Z,1.16
2023-02-24T18:08:43.571Z,1.17
2023-02-24T18:11:17.344Z,1.16
2023-02-24T18:13:51.227Z,1.14
2023-02-24T18:16:20.490Z,1.10
2023-02-24T18:18:50.344Z,1.07
2023-02-24T18:21:19.027Z,1.05
2023-02-24T18:23:49.867Z,1.02
2023-02-24T18:26:24.187Z,0.98
2023-02-24T18:28:56.916Z,0.93
2023-02-24T18:31:28.018Z,0.92
2023-02-24T18:33:57.414Z,0.89
2023-02-24T18:36:26.715Z,0.87
2023-02-24T18:38:56.937Z,0.86
2023-02-24T18:41:25.508Z,0.84
2023-02-24T18:43:56.921Z,0.81
2023-02-24T18:46:26.453Z,0.79
2023-02-24T18:48:56.071Z,0.78
2023-02-24T18:51:29.165Z,0.78
2023-02-24T18:53:57.952Z,0.73
2023-02-24T18:56:28.274Z,0.71
2023-02-24T18:58:59.021Z,0.71
2023-02-24T19:01:39.335Z,0.71
2023-02-24T19:04:08.329Z,0.71
2023-02-24T19:06:37.352Z,0.71
2023-02-24T19:09:10.721Z,0.71
2023-02-24T19:11:40.270Z,0.74
2023-02-24T19:14:12.030Z,0.77
2023-02-24T19:16:41.292Z,0.77
2023-02-24T19:19:14.212Z,0.81
2023-02-24T19:21:48.634Z,0.80
2023-02-24T19:24:17.476Z,0.82
2023-02-24T19:26:47.825Z,0.81
2023-02-24T19:29:22.355Z,0.78
2023-02-24T19:31:54.290Z,0.78
2023-02-24T19:34:23.506Z,0.81
2023-02-24T19:36:52.311Z,0.81
2023-02-24T19:39:21.170Z,0.85
2023-02-24T19:41:53.570Z,0.92
2023-02-24T19:44:24.499Z,0.89
2023-02-24T19:46:53.590Z,0.77
2023-02-24T19:49:22.478Z,0.68
2023-02-24T19:51:56.184Z,0.64
2023-02-24T19:54:24.763Z,0.61
2023-02-24T19:56:57.546Z,0.65
2023-02-24T19:59:26.436Z,0.71
2023-02-24T20:01:56.985Z,0.70
2023-02-24T20:04:25.811Z,0.68
2023-02-24T20:06:57.950Z,0.63
2023-02-24T20:09:27.385Z,0.54
2023-02-24T20:11:58.237Z,0.47
2023-02-24T20:14:27.865Z,0.46
2023-02-24T20:16:57.339Z,0.51
2023-02-24T20:19:26.160Z,0.53
2023-02-24T20:21:55.474Z,0.53
2023-02-24T20:24:25.820Z,0.51
2023-02-24T20:26:54.124Z,0.57
2023-02-24T20:29:43.637Z,0.58
2023-02-24T20:32:16.213Z,0.58
2023-02-24T20:34:46.568Z,0.59
2023-02-24T20:37:16.175Z,0.62
2023-02-24T20:39:45.236Z,0.63
2023-02-24T20:42:21.117Z,0.65
2023-02-24T20:44:49.865Z,0.67
2023-02-24T20:47:19.248Z,0.61
2023-02-24T20:49:48.695Z,0.56
2023-02-24T20:52:17.884Z,0.55
2023-02-24T20:54:46.780Z,0.50
2023-02-24T20:57:15.870Z,0.49
2023-02-24T20:59:57.911Z,0.49
2023-02-24T21:02:31.879Z,0.48
2023-02-24T21:05:01.288Z,0.46
2023-02-24T21:07:32.022Z,0.46
2023-02-24T21:10:01.425Z,0.49
2023-02-24T21:12:31.158Z,0.52
2023-02-24T21:15:00.128Z,0.56
2023-02-24T21:17:35.864Z,0.59
2023-02-24T21:20:05.882Z,0.58
2023-02-24T21:22:34.782Z,0.57
2023-02-24T21:25:04.373Z,0.58
2023-02-24T21:27:33.326Z,0.56
2023-02-24T21:30:02.576Z,0.61
2023-02-24T21:32:31.709Z,0.66
2023-02-24T21:35:00.470Z,0.66
2023-02-24T21:37:30.085Z,0.70
2023-02-24T21:39:58.987Z,0.75
2023-02-24T21:42:28.552Z,0.71
2023-02-24T21:45:02.659Z,0.63
2023-02-24T21:47:31.757Z,0.57
2023-02-24T21:50:00.748Z,0.59
2023-02-24T21:52:30.434Z,0.65
2023-02-24T21:54:59.876Z,0.70
2023-02-24T21:57:33.160Z,0.75
2023-02-24T22:00:02.559Z,0.76
2023-02-24T22:02:35.952Z,0.80
2023-02-24T22:05:05.693Z,0.79
2023-02-24T22:07:36.614Z,0.76
2023-02-24T22:10:06.104Z,0.78
2023-02-24T22:12:37.554Z,0.78
2023-02-24T22:15:07.668Z,0.76
2023-02-24T22:17:38.100Z,0.76
2023-02-24T22:20:10.274Z,0.76
2023-02-24T22:22:40.101Z,0.84
2023-02-24T22:25:10.949Z,0.93
2023-02-24T22:27:39.665Z,0.99
2023-02-24T22:30:09.640Z,0.98
2023-02-24T22:32:41.005Z,0.96
2023-02-24T22:35:10.271Z,0.90
2023-02-24T22:37:39.263Z,0.88
2023-02-24T22:40:09.740Z,0.88
2023-02-24T22:42:41.035Z,0.90
2023-02-24T22:45:10.439Z,0.98
2023-02-24T22:47:39.162Z,1.05
2023-02-24T22:50:09.906Z,1.04
2023-02-24T22:52:38.849Z,1.00
2023-02-24T22:55:08.559Z,1.00
2023-02-24T22:57:37.680Z,1.03
2023-02-24T23:00:11.004Z,1.10
2023-02-24T23:02:41.932Z,1.14
2023-02-24T23:05:15.486Z,1.16
2023-02-24T23:07:48.579Z,1.17
2023-02-24T23:10:19.014Z,1.14
2023-02-24T23:12:49.016Z,1.11
2023-02-24T23:15:18.017Z,1.08
2023-02-24T23:17:50.863Z,1.05
2023-02-24T23:20:20.088Z,1.02
2023-02-24T23:22:53.193Z,1.00
2023-02-24T23:25:23.501Z,0.94
2023-02-24T23:27:52.185Z,0.91
2023-02-24T23:30:21.279Z,0.92
2023-02-24T23:32:50.100Z,0.92
2023-02-24T23:35:19.373Z,0.91
2023-02-24T23:37:48.575Z,0.92
2023-02-24T23:40:17.776Z,0.95
2023-02-24T23:42:46.759Z,0.98
2023-02-24T23:45:17.595Z,1.04
2023-02-24T23:47:46.915Z,1.06
2023-02-24T23:50:19.180Z,1.07
2023-02-24T23:52:48.980Z,1.11
2023-02-24T23:55:20.323Z,1.12
2023-02-24T23:57:49.596Z,1.08
